Aviation Digital Data Service (ADDS)

Output produced by METARs form (1523 UTC 03 December 2021)
found at http://aviationweather.gov/metar/data/
 
KMCB 031357Z 0314/0412 00000KT 0SM FG VV002 
     FM031600 VRB04KT P6SM BKN008 
     FM031700 23005KT P6SM SCT250 
     FM040800 00000KT 1/2SM FG BKN001